sensor_id;sensor_type;location;lat;lon;timestamp;P1;durP1;ratioP1;P2;durP2;ratioP2
69856;SDS011;57147;53.582;10.112;2023-07-31T00:04:57;3.88;;;1.23;;
69856;SDS011;57147;53.582;10.112;2023-07-31T00:09:58;3.53;;;1.13;;
69856;SDS011;57147;53.582;10.112;2023-07-31T00:15:01;4.63;;;1.83;;
69856;SDS011;57147;53.582;10.112;2023-07-31T00:20:03;3.80;;;1.08;;
69856;SDS011;57147;53.582;10.112;2023-07-31T00:25:04;4.13;;;1.38;;
69856;SDS011;57147;53.582;10.112;2023-07-31T00:30:07;5.82;;;1.33;;
69856;SDS011;57147;53.582;10.112;2023-07-31T00:35:09;2.83;;;1.17;;
69856;SDS011;57147;53.582;10.112;2023-07-31T00:40:09;2.22;;;1.42;;
69856;SDS011;57147;53.582;10.112;2023-07-31T00:45:12;2.97;;;0.88;;
69856;SDS011;57147;53.582;10.112;2023-07-31T00:50:13;5.05;;;0.60;;
69856;SDS011;57147;53.582;10.112;2023-07-31T00:55:15;3.70;;;0.82;;
69856;SDS011;57147;53.582;10.112;2023-07-31T01:00:18;5.38;;;1.92;;
69856;SDS011;57147;53.582;10.112;2023-07-31T01:05:19;4.57;;;1.20;;
69856;SDS011;57147;53.582;10.112;2023-07-31T01:10:26;2.50;;;1.15;;
69856;SDS011;57147;53.582;10.112;2023-07-31T01:15:32;4.15;;;1.30;;
69856;SDS011;57147;53.582;10.112;2023-07-31T01:20:33;5.93;;;1.33;;
69856;SDS011;57147;53.582;10.112;2023-07-31T01:31:05;4.65;;;1.90;;
69856;SDS011;57147;53.582;10.112;2023-07-31T01:36:10;3.47;;;1.30;;
69856;SDS011;57147;53.582;10.112;2023-07-31T01:41:16;3.80;;;1.98;;
69856;SDS011;57147;53.582;10.112;2023-07-31T01:46:16;3.28;;;1.25;;
69856;SDS011;57147;53.582;10.112;2023-07-31T01:51:17;4.55;;;1.00;;
69856;SDS011;57147;53.582;10.112;2023-07-31T01:56:20;4.95;;;1.38;;
69856;SDS011;57147;53.582;10.112;2023-07-31T02:01:21;5.82;;;2.03;;
69856;SDS011;57147;53.582;10.112;2023-07-31T02:06:21;4.60;;;1.02;;
69856;SDS011;57147;53.582;10.112;2023-07-31T02:11:24;4.85;;;1.35;;
69856;SDS011;57147;53.582;10.112;2023-07-31T02:16:25;5.15;;;1.60;;
69856;SDS011;57147;53.582;10.112;2023-07-31T02:21:25;3.05;;;1.00;;
69856;SDS011;57147;53.582;10.112;2023-07-31T02:26:29;6.22;;;1.55;;
69856;SDS011;57147;53.582;10.112;2023-07-31T02:31:29;4.93;;;1.65;;
69856;SDS011;57147;53.582;10.112;2023-07-31T02:36:30;4.22;;;1.88;;
69856;SDS011;57147;53.582;10.112;2023-07-31T02:41:33;5.03;;;1.77;;
69856;SDS011;57147;53.582;10.112;2023-07-31T02:46:33;4.60;;;2.15;;
69856;SDS011;57147;53.582;10.112;2023-07-31T02:51:34;5.70;;;1.27;;
69856;SDS011;57147;53.582;10.112;2023-07-31T02:56:37;4.28;;;2.10;;
69856;SDS011;57147;53.582;10.112;2023-07-31T03:01:38;4.88;;;1.77;;
69856;SDS011;57147;53.582;10.112;2023-07-31T03:06:38;4.05;;;1.45;;
69856;SDS011;57147;53.582;10.112;2023-07-31T03:11:41;5.25;;;1.60;;
69856;SDS011;57147;53.582;10.112;2023-07-31T03:16:42;7.38;;;2.13;;
69856;SDS011;57147;53.582;10.112;2023-07-31T03:21:42;5.07;;;2.80;;
69856;SDS011;57147;53.582;10.112;2023-07-31T03:26:45;3.90;;;1.38;;
69856;SDS011;57147;53.582;10.112;2023-07-31T03:31:46;5.47;;;1.70;;
69856;SDS011;57147;53.582;10.112;2023-07-31T03:36:47;6.63;;;1.73;;
69856;SDS011;57147;53.582;10.112;2023-07-31T03:41:50;4.25;;;1.38;;
69856;SDS011;57147;53.582;10.112;2023-07-31T03:46:50;3.58;;;1.52;;
69856;SDS011;57147;53.582;10.112;2023-07-31T03:51:51;3.60;;;1.58;;
69856;SDS011;57147;53.582;10.112;2023-07-31T03:56:54;2.67;;;1.45;;
69856;SDS011;57147;53.582;10.112;2023-07-31T04:01:55;5.30;;;3.30;;
69856;SDS011;57147;53.582;10.112;2023-07-31T04:06:55;5.93;;;1.83;;
69856;SDS011;57147;53.582;10.112;2023-07-31T04:11:59;2.22;;;0.85;;
69856;SDS011;57147;53.582;10.112;2023-07-31T04:16:59;4.18;;;1.42;;
69856;SDS011;57147;53.582;10.112;2023-07-31T04:22:00;3.20;;;2.00;;
69856;SDS011;57147;53.582;10.112;2023-07-31T04:27:03;3.88;;;2.72;;
69856;SDS011;57147;53.582;10.112;2023-07-31T04:32:04;4.20;;;1.65;;
69856;SDS011;57147;53.582;10.112;2023-07-31T04:37:05;3.80;;;1.67;;
69856;SDS011;57147;53.582;10.112;2023-07-31T04:42:08;4.28;;;2.75;;
69856;SDS011;57147;53.582;10.112;2023-07-31T04:47:09;3.20;;;1.25;;
69856;SDS011;57147;53.582;10.112;2023-07-31T04:52:10;2.58;;;1.15;;
69856;SDS011;57147;53.582;10.112;2023-07-31T04:57:13;5.07;;;2.80;;
69856;SDS011;57147;53.582;10.112;2023-07-31T05:02:14;1.92;;;1.10;;
69856;SDS011;57147;53.582;10.112;2023-07-31T05:07:15;4.55;;;2.85;;
69856;SDS011;57147;53.582;10.112;2023-07-31T05:12:18;2.03;;;0.73;;
69856;SDS011;57147;53.582;10.112;2023-07-31T05:17:18;3.70;;;3.40;;
69856;SDS011;57147;53.582;10.112;2023-07-31T05:22:19;1.95;;;1.15;;
69856;SDS011;57147;53.582;10.112;2023-07-31T05:27:22;2.97;;;1.35;;
69856;SDS011;57147;53.582;10.112;2023-07-31T05:32:23;1.55;;;1.35;;
69856;SDS011;57147;53.582;10.112;2023-07-31T05:37:23;3.83;;;3.30;;
69856;SDS011;57147;53.582;10.112;2023-07-31T05:42:26;3.50;;;2.25;;
69856;SDS011;57147;53.582;10.112;2023-07-31T05:47:27;3.97;;;3.67;;
69856;SDS011;57147;53.582;10.112;2023-07-31T05:52:28;2.28;;;1.95;;
69856;SDS011;57147;53.582;10.112;2023-07-31T05:57:31;2.95;;;2.75;;
69856;SDS011;57147;53.582;10.112;2023-07-31T06:02:31;2.13;;;1.35;;
69856;SDS011;57147;53.582;10.112;2023-07-31T06:07:32;1.50;;;1.23;;
69856;SDS011;57147;53.582;10.112;2023-07-31T06:12:35;2.00;;;1.25;;
69856;SDS011;57147;53.582;10.112;2023-07-31T06:17:36;1.85;;;1.17;;
69856;SDS011;57147;53.582;10.112;2023-07-31T06:22:37;1.73;;;0.98;;
69856;SDS011;57147;53.582;10.112;2023-07-31T06:27:40;2.05;;;1.48;;
69856;SDS011;57147;53.582;10.112;2023-07-31T06:32:40;1.48;;;1.23;;
69856;SDS011;57147;53.582;10.112;2023-07-31T06:37:41;3.35;;;2.13;;
69856;SDS011;57147;53.582;10.112;2023-07-31T06:42:44;2.08;;;1.52;;
69856;SDS011;57147;53.582;10.112;2023-07-31T06:47:45;2.28;;;1.58;;
69856;SDS011;57147;53.582;10.112;2023-07-31T06:52:54;2.70;;;1.08;;
69856;SDS011;57147;53.582;10.112;2023-07-31T06:57:57;3.83;;;2.90;;
69856;SDS011;57147;53.582;10.112;2023-07-31T07:02:58;2.92;;;1.67;;
69856;SDS011;57147;53.582;10.112;2023-07-31T07:07:59;2.60;;;1.83;;
69856;SDS011;57147;53.582;10.112;2023-07-31T07:13:02;3.22;;;1.52;;
69856;SDS011;57147;53.582;10.112;2023-07-31T07:18:02;2.70;;;1.45;;
69856;SDS011;57147;53.582;10.112;2023-07-31T07:23:03;1.98;;;1.88;;
69856;SDS011;57147;53.582;10.112;2023-07-31T07:28:06;2.17;;;1.70;;
69856;SDS011;57147;53.582;10.112;2023-07-31T07:33:07;1.95;;;1.75;;
69856;SDS011;57147;53.582;10.112;2023-07-31T07:38:07;2.45;;;2.00;;
69856;SDS011;57147;53.582;10.112;2023-07-31T07:43:10;3.08;;;1.83;;
69856;SDS011;57147;53.582;10.112;2023-07-31T07:48:11;2.08;;;1.88;;
69856;SDS011;57147;53.582;10.112;2023-07-31T07:53:12;2.83;;;2.47;;
69856;SDS011;57147;53.582;10.112;2023-07-31T07:58:15;2.40;;;2.20;;
69856;SDS011;57147;53.582;10.112;2023-07-31T08:03:15;1.65;;;1.27;;
69856;SDS011;57147;53.582;10.112;2023-07-31T08:08:16;2.80;;;1.90;;
69856;SDS011;57147;53.582;10.112;2023-07-31T08:13:19;2.25;;;1.55;;
69856;SDS011;57147;53.582;10.112;2023-07-31T08:18:20;6.25;;;4.85;;
69856;SDS011;57147;53.582;10.112;2023-07-31T08:23:21;2.05;;;1.48;;
69856;SDS011;57147;53.582;10.112;2023-07-31T08:28:24;2.53;;;1.95;;
69856;SDS011;57147;53.582;10.112;2023-07-31T08:33:25;7.13;;;4.55;;
69856;SDS011;57147;53.582;10.112;2023-07-31T08:38:26;3.60;;;2.50;;
69856;SDS011;57147;53.582;10.112;2023-07-31T08:43:29;1.45;;;1.05;;
69856;SDS011;57147;53.582;10.112;2023-07-31T08:48:31;3.33;;;2.10;;
69856;SDS011;57147;53.582;10.112;2023-07-31T08:53:32;4.60;;;3.53;;
69856;SDS011;57147;53.582;10.112;2023-07-31T08:58:35;2.17;;;1.67;;
69856;SDS011;57147;53.582;10.112;2023-07-31T09:03:38;2.13;;;1.00;;
69856;SDS011;57147;53.582;10.112;2023-07-31T09:08:40;0.93;;;0.90;;
69856;SDS011;57147;53.582;10.112;2023-07-31T09:13:44;1.60;;;1.50;;
69856;SDS011;57147;53.582;10.112;2023-07-31T09:18:52;1.20;;;0.93;;
69856;SDS011;57147;53.582;10.112;2023-07-31T09:23:54;1.08;;;0.82;;
69856;SDS011;57147;53.582;10.112;2023-07-31T09:28:57;2.92;;;2.72;;
69856;SDS011;57147;53.582;10.112;2023-07-31T09:33:58;1.42;;;1.05;;
69856;SDS011;57147;53.582;10.112;2023-07-31T09:39:01;2.88;;;2.67;;
69856;SDS011;57147;53.582;10.112;2023-07-31T09:44:05;2.10;;;1.70;;
69856;SDS011;57147;53.582;10.112;2023-07-31T09:49:06;1.52;;;1.40;;
69856;SDS011;57147;53.582;10.112;2023-07-31T09:54:10;3.33;;;0.98;;
69856;SDS011;57147;53.582;10.112;2023-07-31T09:59:14;1.67;;;1.40;;
69856;SDS011;57147;53.582;10.112;2023-07-31T10:04:16;1.45;;;1.35;;
69856;SDS011;57147;53.582;10.112;2023-07-31T10:09:18;3.83;;;0.90;;
69856;SDS011;57147;53.582;10.112;2023-07-31T10:14:23;2.15;;;1.20;;
69856;SDS011;57147;53.582;10.112;2023-07-31T10:19:24;0.93;;;0.68;;
69856;SDS011;57147;53.582;10.112;2023-07-31T10:24:27;2.28;;;0.88;;
69856;SDS011;57147;53.582;10.112;2023-07-31T10:29:31;1.38;;;0.68;;
69856;SDS011;57147;53.582;10.112;2023-07-31T10:34:32;2.10;;;1.30;;
69856;SDS011;57147;53.582;10.112;2023-07-31T10:39:33;1.63;;;0.88;;
69856;SDS011;57147;53.582;10.112;2023-07-31T10:44:38;1.25;;;1.15;;
69856;SDS011;57147;53.582;10.112;2023-07-31T10:49:44;2.30;;;2.03;;
69856;SDS011;57147;53.582;10.112;2023-07-31T10:54:45;2.60;;;2.40;;
69856;SDS011;57147;53.582;10.112;2023-07-31T10:59:49;1.83;;;0.90;;
69856;SDS011;57147;53.582;10.112;2023-07-31T11:05:05;2.90;;;2.42;;
69856;SDS011;57147;53.582;10.112;2023-07-31T11:10:08;1.38;;;0.85;;
69856;SDS011;57147;53.582;10.112;2023-07-31T11:15:11;2.95;;;1.80;;
69856;SDS011;57147;53.582;10.112;2023-07-31T11:20:17;1.67;;;1.58;;
69856;SDS011;57147;53.582;10.112;2023-07-31T11:25:18;2.63;;;1.65;;
69856;SDS011;57147;53.582;10.112;2023-07-31T11:30:21;7.85;;;4.50;;
69856;SDS011;57147;53.582;10.112;2023-07-31T11:35:22;6.47;;;4.65;;
69856;SDS011;57147;53.582;10.112;2023-07-31T11:40:23;5.85;;;3.38;;
69856;SDS011;57147;53.582;10.112;2023-07-31T11:45:29;6.97;;;3.08;;
69856;SDS011;57147;53.582;10.112;2023-07-31T11:50:30;5.53;;;2.78;;
69856;SDS011;57147;53.582;10.112;2023-07-31T11:55:33;5.40;;;3.45;;
69856;SDS011;57147;53.582;10.112;2023-07-31T12:00:37;6.68;;;3.13;;
69856;SDS011;57147;53.582;10.112;2023-07-31T12:05:38;4.88;;;1.85;;
69856;SDS011;57147;53.582;10.112;2023-07-31T12:10:39;5.72;;;2.38;;
69856;SDS011;57147;53.582;10.112;2023-07-31T12:15:43;2.17;;;1.27;;
69856;SDS011;57147;53.582;10.112;2023-07-31T12:20:44;4.32;;;2.78;;
69856;SDS011;57147;53.582;10.112;2023-07-31T12:25:46;3.20;;;2.72;;
69856;SDS011;57147;53.582;10.112;2023-07-31T12:30:49;5.80;;;2.38;;
69856;SDS011;57147;53.582;10.112;2023-07-31T12:35:50;3.55;;;3.08;;
69856;SDS011;57147;53.582;10.112;2023-07-31T12:40:51;1.02;;;0.73;;
69856;SDS011;57147;53.582;10.112;2023-07-31T12:45:55;3.25;;;1.27;;
69856;SDS011;57147;53.582;10.112;2023-07-31T12:50:56;1.38;;;0.95;;
69856;SDS011;57147;53.582;10.112;2023-07-31T12:55:56;3.95;;;1.20;;
69856;SDS011;57147;53.582;10.112;2023-07-31T13:00:59;1.20;;;1.10;;
69856;SDS011;57147;53.582;10.112;2023-07-31T13:06:00;1.30;;;0.50;;
69856;SDS011;57147;53.582;10.112;2023-07-31T13:11:01;1.40;;;0.77;;
69856;SDS011;57147;53.582;10.112;2023-07-31T13:16:04;1.67;;;1.58;;
69856;SDS011;57147;53.582;10.112;2023-07-31T13:21:04;4.03;;;0.55;;
69856;SDS011;57147;53.582;10.112;2023-07-31T13:26:05;7.88;;;1.98;;
69856;SDS011;57147;53.582;10.112;2023-07-31T13:31:08;7.18;;;1.70;;
69856;SDS011;57147;53.582;10.112;2023-07-31T13:36:09;2.10;;;1.02;;
69856;SDS011;57147;53.582;10.112;2023-07-31T13:41:09;4.25;;;0.90;;
69856;SDS011;57147;53.582;10.112;2023-07-31T13:46:13;3.75;;;1.40;;
69856;SDS011;57147;53.582;10.112;2023-07-31T13:51:13;7.40;;;0.95;;
69856;SDS011;57147;53.582;10.112;2023-07-31T13:56:14;1.52;;;0.98;;
69856;SDS011;57147;53.582;10.112;2023-07-31T14:01:18;4.90;;;2.13;;
69856;SDS011;57147;53.582;10.112;2023-07-31T14:06:19;6.95;;;3.92;;
69856;SDS011;57147;53.582;10.112;2023-07-31T14:11:20;2.25;;;1.63;;
69856;SDS011;57147;53.582;10.112;2023-07-31T14:16:23;3.17;;;1.60;;
69856;SDS011;57147;53.582;10.112;2023-07-31T14:21:24;5.13;;;2.17;;
69856;SDS011;57147;53.582;10.112;2023-07-31T14:26:25;3.05;;;1.83;;
69856;SDS011;57147;53.582;10.112;2023-07-31T14:31:28;37.95;;;5.78;;
69856;SDS011;57147;53.582;10.112;2023-07-31T14:36:29;6.53;;;2.17;;
69856;SDS011;57147;53.582;10.112;2023-07-31T14:41:29;33.92;;;4.32;;
69856;SDS011;57147;53.582;10.112;2023-07-31T14:46:32;74.97;;;5.50;;
69856;SDS011;57147;53.582;10.112;2023-07-31T14:51:33;48.78;;;5.40;;
69856;SDS011;57147;53.582;10.112;2023-07-31T14:56:33;38.85;;;4.47;;
69856;SDS011;57147;53.582;10.112;2023-07-31T15:01:37;61.45;;;7.38;;
69856;SDS011;57147;53.582;10.112;2023-07-31T15:06:37;7.10;;;1.95;;
69856;SDS011;57147;53.582;10.112;2023-07-31T15:11:38;5.78;;;2.10;;
69856;SDS011;57147;53.582;10.112;2023-07-31T15:16:41;5.40;;;2.30;;
69856;SDS011;57147;53.582;10.112;2023-07-31T15:21:42;5.00;;;2.50;;
69856;SDS011;57147;53.582;10.112;2023-07-31T15:26:42;34.25;;;4.32;;
69856;SDS011;57147;53.582;10.112;2023-07-31T15:31:46;13.27;;;5.85;;
69856;SDS011;57147;53.582;10.112;2023-07-31T15:36:47;5.57;;;3.15;;
69856;SDS011;57147;53.582;10.112;2023-07-31T15:41:48;5.80;;;3.00;;
69856;SDS011;57147;53.582;10.112;2023-07-31T15:46:51;5.95;;;3.35;;
69856;SDS011;57147;53.582;10.112;2023-07-31T15:51:52;7.10;;;2.97;;
69856;SDS011;57147;53.582;10.112;2023-07-31T15:56:52;6.72;;;3.22;;
69856;SDS011;57147;53.582;10.112;2023-07-31T16:01:56;11.55;;;4.13;;
69856;SDS011;57147;53.582;10.112;2023-07-31T16:06:56;13.20;;;4.75;;
69856;SDS011;57147;53.582;10.112;2023-07-31T16:11:57;41.20;;;8.18;;
69856;SDS011;57147;53.582;10.112;2023-07-31T16:17:00;22.95;;;5.03;;
69856;SDS011;57147;53.582;10.112;2023-07-31T16:22:01;8.15;;;5.10;;
69856;SDS011;57147;53.582;10.112;2023-07-31T16:27:01;7.70;;;4.38;;
69856;SDS011;57147;53.582;10.112;2023-07-31T16:32:05;5.32;;;3.47;;
69856;SDS011;57147;53.582;10.112;2023-07-31T16:37:06;20.48;;;6.35;;
69856;SDS011;57147;53.582;10.112;2023-07-31T16:42:07;7.38;;;4.28;;
69856;SDS011;57147;53.582;10.112;2023-07-31T16:47:10;5.90;;;3.65;;
69856;SDS011;57147;53.582;10.112;2023-07-31T16:52:11;10.02;;;5.50;;
69856;SDS011;57147;53.582;10.112;2023-07-31T16:57:12;10.80;;;5.13;;
69856;SDS011;57147;53.582;10.112;2023-07-31T17:02:15;5.72;;;3.92;;
69856;SDS011;57147;53.582;10.112;2023-07-31T17:07:16;13.73;;;4.75;;
69856;SDS011;57147;53.582;10.112;2023-07-31T17:12:16;8.15;;;6.90;;
69856;SDS011;57147;53.582;10.112;2023-07-31T17:17:19;16.40;;;7.22;;
69856;SDS011;57147;53.582;10.112;2023-07-31T17:22:20;5.85;;;2.60;;
69856;SDS011;57147;53.582;10.112;2023-07-31T17:27:20;7.25;;;4.07;;
69856;SDS011;57147;53.582;10.112;2023-07-31T17:32:28;7.82;;;4.57;;
69856;SDS011;57147;53.582;10.112;2023-07-31T17:37:29;4.88;;;3.92;;
69856;SDS011;57147;53.582;10.112;2023-07-31T17:42:30;8.43;;;3.97;;
69856;SDS011;57147;53.582;10.112;2023-07-31T17:47:33;7.45;;;3.42;;
69856;SDS011;57147;53.582;10.112;2023-07-31T17:52:36;8.75;;;3.63;;
69856;SDS011;57147;53.582;10.112;2023-07-31T17:57:37;10.77;;;4.55;;
69856;SDS011;57147;53.582;10.112;2023-07-31T18:02:40;9.75;;;5.53;;
69856;SDS011;57147;53.582;10.112;2023-07-31T18:07:41;15.48;;;7.50;;
69856;SDS011;57147;53.582;10.112;2023-07-31T18:12:41;12.50;;;6.50;;
69856;SDS011;57147;53.582;10.112;2023-07-31T18:17:44;18.10;;;6.68;;
69856;SDS011;57147;53.582;10.112;2023-07-31T18:22:45;11.90;;;6.38;;
69856;SDS011;57147;53.582;10.112;2023-07-31T18:27:45;11.82;;;5.43;;
69856;SDS011;57147;53.582;10.112;2023-07-31T18:32:49;20.98;;;8.65;;
69856;SDS011;57147;53.582;10.112;2023-07-31T18:37:49;20.63;;;6.90;;
69856;SDS011;57147;53.582;10.112;2023-07-31T18:42:50;19.13;;;6.03;;
69856;SDS011;57147;53.582;10.112;2023-07-31T18:47:56;33.83;;;10.23;;
69856;SDS011;57147;53.582;10.112;2023-07-31T18:53:00;30.25;;;7.43;;
69856;SDS011;57147;53.582;10.112;2023-07-31T18:58:00;23.35;;;9.93;;
69856;SDS011;57147;53.582;10.112;2023-07-31T19:03:04;12.25;;;6.97;;
69856;SDS011;57147;53.582;10.112;2023-07-31T19:08:07;11.85;;;5.97;;
69856;SDS011;57147;53.582;10.112;2023-07-31T19:13:08;26.77;;;8.93;;
69856;SDS011;57147;53.582;10.112;2023-07-31T19:18:11;15.00;;;7.65;;
69856;SDS011;57147;53.582;10.112;2023-07-31T19:23:12;15.80;;;7.40;;
69856;SDS011;57147;53.582;10.112;2023-07-31T19:28:12;15.65;;;8.90;;
69856;SDS011;57147;53.582;10.112;2023-07-31T19:33:19;17.67;;;9.38;;
69856;SDS011;57147;53.582;10.112;2023-07-31T19:38:19;21.38;;;9.38;;
69856;SDS011;57147;53.582;10.112;2023-07-31T19:43:20;19.48;;;8.88;;
69856;SDS011;57147;53.582;10.112;2023-07-31T19:48:24;24.08;;;10.88;;
69856;SDS011;57147;53.582;10.112;2023-07-31T19:53:24;21.23;;;11.63;;
69856;SDS011;57147;53.582;10.112;2023-07-31T19:58:27;16.58;;;9.18;;
69856;SDS011;57147;53.582;10.112;2023-07-31T20:03:32;20.58;;;9.40;;
69856;SDS011;57147;53.582;10.112;2023-07-31T20:08:32;17.52;;;9.43;;
69856;SDS011;57147;53.582;10.112;2023-07-31T20:13:33;19.40;;;8.60;;
69856;SDS011;57147;53.582;10.112;2023-07-31T20:18:37;14.13;;;9.70;;
69856;SDS011;57147;53.582;10.112;2023-07-31T20:23:41;16.00;;;8.23;;
69856;SDS011;57147;53.582;10.112;2023-07-31T20:28:42;14.63;;;9.32;;
69856;SDS011;57147;53.582;10.112;2023-07-31T20:33:45;13.85;;;8.13;;
69856;SDS011;57147;53.582;10.112;2023-07-31T20:38:46;15.55;;;8.40;;
69856;SDS011;57147;53.582;10.112;2023-07-31T20:43:48;22.75;;;10.82;;
69856;SDS011;57147;53.582;10.112;2023-07-31T20:48:51;24.33;;;11.57;;
69856;SDS011;57147;53.582;10.112;2023-07-31T20:53:52;22.45;;;10.55;;
69856;SDS011;57147;53.582;10.112;2023-07-31T20:58:53;16.67;;;9.30;;
69856;SDS011;57147;53.582;10.112;2023-07-31T21:03:56;11.93;;;7.68;;
69856;SDS011;57147;53.582;10.112;2023-07-31T21:08:57;12.63;;;8.57;;
69856;SDS011;57147;53.582;10.112;2023-07-31T21:13:57;15.80;;;9.23;;
69856;SDS011;57147;53.582;10.112;2023-07-31T21:19:00;11.90;;;8.30;;
69856;SDS011;57147;53.582;10.112;2023-07-31T21:24:01;9.32;;;6.55;;
69856;SDS011;57147;53.582;10.112;2023-07-31T21:29:03;12.90;;;5.32;;
69856;SDS011;57147;53.582;10.112;2023-07-31T21:34:06;6.95;;;4.32;;
69856;SDS011;57147;53.582;10.112;2023-07-31T21:39:06;12.48;;;5.55;;
69856;SDS011;57147;53.582;10.112;2023-07-31T21:44:07;10.00;;;5.40;;
69856;SDS011;57147;53.582;10.112;2023-07-31T21:49:16;10.82;;;6.72;;
69856;SDS011;57147;53.582;10.112;2023-07-31T21:54:17;16.30;;;6.88;;
69856;SDS011;57147;53.582;10.112;2023-07-31T21:59:17;9.77;;;4.35;;
69856;SDS011;57147;53.582;10.112;2023-07-31T22:04:23;5.55;;;2.65;;
69856;SDS011;57147;53.582;10.112;2023-07-31T22:09:26;7.38;;;3.65;;
69856;SDS011;57147;53.582;10.112;2023-07-31T22:14:30;4.13;;;2.30;;
69856;SDS011;57147;53.582;10.112;2023-07-31T22:19:33;8.18;;;4.57;;
69856;SDS011;57147;53.582;10.112;2023-07-31T22:24:33;4.75;;;2.63;;
69856;SDS011;57147;53.582;10.112;2023-07-31T22:29:34;9.68;;;4.78;;
69856;SDS011;57147;53.582;10.112;2023-07-31T22:34:38;7.00;;;3.00;;
69856;SDS011;57147;53.582;10.112;2023-07-31T22:39:38;7.28;;;3.78;;
69856;SDS011;57147;53.582;10.112;2023-07-31T22:44:39;14.25;;;6.90;;
69856;SDS011;57147;53.582;10.112;2023-07-31T22:49:42;7.38;;;3.47;;
69856;SDS011;57147;53.582;10.112;2023-07-31T22:54:43;4.10;;;2.70;;
69856;SDS011;57147;53.582;10.112;2023-07-31T22:59:43;14.88;;;6.47;;
69856;SDS011;57147;53.582;10.112;2023-07-31T23:04:47;3.58;;;2.40;;
69856;SDS011;57147;53.582;10.112;2023-07-31T23:09:47;4.47;;;2.10;;
69856;SDS011;57147;53.582;10.112;2023-07-31T23:14:48;6.15;;;2.92;;
69856;SDS011;57147;53.582;10.112;2023-07-31T23:19:51;8.80;;;3.10;;
69856;SDS011;57147;53.582;10.112;2023-07-31T23:24:52;5.63;;;2.75;;
69856;SDS011;57147;53.582;10.112;2023-07-31T23:29:52;5.32;;;2.63;;
69856;SDS011;57147;53.582;10.112;2023-07-31T23:34:56;5.38;;;4.13;;
69856;SDS011;57147;53.582;10.112;2023-07-31T23:39:56;5.18;;;4.68;;
69856;SDS011;57147;53.582;10.112;2023-07-31T23:44:57;5.68;;;3.63;;
69856;SDS011;57147;53.582;10.112;2023-07-31T23:50:01;5.10;;;3.15;;
69856;SDS011;57147;53.582;10.112;2023-07-31T23:55:01;4.20;;;2.85;;
